Edina, Minnesota
Current Conditions -  °F | °C
As of 7:53 AM on Wednesday 26 Nov 2014 (Local Time) from KMSP Reporting Station
Light Snow Light Snow  
Wind Chill: 13°   Ceiling: 2400
Heat Index: 22°   Visibility: 1.5mi
Dew Point: 19°   Wind: 7mph
Humidity: 89%   Direction: 10°N
Pressure: 30.11"   Gusts: NA
Location:  44.91°N, 93.35°W
Report Text: KMSP 261353Z 01006KT 1 1/2SM -SN BR OVC024 M06/M07 A3011 RMK AO2 SLP210 P0003 T10561072
Loading
Personal Weather Stations






























Interactive Weather Map New forecast layout! Learn more

10-Day Weather Forecast

Advertisements
Track Severe Weather on mobile